createdAt,value
2022-12-11T00:02:56.910Z,88.4
2022-12-11T00:05:56.849Z,88.3
2022-12-11T00:08:56.857Z,88
2022-12-11T00:11:56.899Z,87.9
2022-12-11T00:14:56.884Z,87.9
2022-12-11T00:17:56.893Z,87.8
2022-12-11T00:20:56.900Z,87.8
2022-12-11T00:23:56.908Z,88
2022-12-11T00:26:56.922Z,88.2
2022-12-11T00:29:56.955Z,88.2
2022-12-11T00:32:56.944Z,88.2
2022-12-11T00:35:56.957Z,87.8
2022-12-11T00:38:56.966Z,87.7
2022-12-11T00:41:56.972Z,87.6
2022-12-11T00:44:56.985Z,87.6
2022-12-11T00:47:57.024Z,87.6
2022-12-11T00:50:57.006Z,87.7
2022-12-11T00:53:57.019Z,87.7
2022-12-11T00:56:57.021Z,87.7
2022-12-11T00:59:57.031Z,87.8
2022-12-11T01:02:57.057Z,87.7
2022-12-11T01:05:57.071Z,87.8
2022-12-11T01:08:57.058Z,87.9
2022-12-11T01:11:57.062Z,87.8
2022-12-11T01:14:57.069Z,87.5
2022-12-11T01:17:57.080Z,87.4
2022-12-11T01:20:57.090Z,86.8
2022-12-11T01:23:57.125Z,86.1
2022-12-11T01:26:57.109Z,86.2
2022-12-11T01:29:57.112Z,86.3
2022-12-11T01:32:57.130Z,86.3
2022-12-11T01:35:57.138Z,86.4
2022-12-11T01:38:57.154Z,86.5
2022-12-11T01:41:57.181Z,86.5
2022-12-11T01:44:57.166Z,86.5
2022-12-11T01:47:57.178Z,86.4
2022-12-11T01:50:57.187Z,86.6
2022-12-11T01:53:57.202Z,86.1
2022-12-11T01:56:57.204Z,86.4
2022-12-11T01:59:57.242Z,86.4
2022-12-11T02:02:57.219Z,86.4
2022-12-11T02:05:57.247Z,86
2022-12-11T02:08:57.315Z,85.8
2022-12-11T02:11:57.254Z,85.8
2022-12-11T02:14:57.259Z,85.7
2022-12-11T02:17:57.298Z,85.6
2022-12-11T02:20:57.277Z,85.4
2022-12-11T02:23:57.296Z,85.5
2022-12-11T02:26:57.305Z,85.9
2022-12-11T02:29:57.312Z,86.2
2022-12-11T02:32:57.322Z,86.5
2022-12-11T02:35:57.356Z,86.9
2022-12-11T02:38:57.344Z,87
2022-12-11T02:41:57.351Z,87.2
2022-12-11T02:44:57.361Z,87.2
2022-12-11T02:47:57.371Z,87.1
2022-12-11T02:50:57.376Z,86.9
2022-12-11T02:53:57.409Z,86.9
2022-12-11T02:56:57.397Z,87
2022-12-11T02:59:57.411Z,87
2022-12-11T03:02:57.429Z,87
2022-12-11T03:05:57.430Z,87
2022-12-11T03:08:57.658Z,86.9
2022-12-11T03:11:57.475Z,86.8
2022-12-11T03:14:57.450Z,86.9
2022-12-11T03:17:57.481Z,86.8
2022-12-11T03:20:57.457Z,86.7
2022-12-11T03:23:57.463Z,86.8
2022-12-11T03:27:00.148Z,86.7
2022-12-11T03:29:57.495Z,86.5
2022-12-11T03:32:57.485Z,86.4
2022-12-11T03:35:57.491Z,86.2
2022-12-11T03:38:57.490Z,86.3
2022-12-11T03:41:57.491Z,86.2
2022-12-11T03:44:57.501Z,86
2022-12-11T03:47:57.533Z,85.8
2022-12-11T03:50:57.511Z,85.7
2022-12-11T03:53:57.526Z,85.6
2022-12-11T03:56:57.528Z,85.6
2022-12-11T03:59:57.528Z,85.6
2022-12-11T04:02:57.541Z,85.5
2022-12-11T04:06:02.960Z,85.6
2022-12-11T04:08:57.568Z,85.5
2022-12-11T04:11:57.552Z,85.8
2022-12-11T04:14:57.563Z,86.1
2022-12-11T04:17:57.553Z,86.1
2022-12-11T04:20:57.564Z,86.1
2022-12-11T04:23:57.576Z,86
2022-12-11T04:26:57.592Z,86.1
2022-12-11T04:29:57.575Z,86.2
2022-12-11T04:32:57.571Z,86.1
2022-12-11T04:35:57.578Z,85.9
2022-12-11T04:38:57.585Z,85.6
2022-12-11T04:41:57.600Z,85.7
2022-12-11T04:44:57.617Z,85.9
2022-12-11T04:47:57.602Z,85.9
2022-12-11T04:50:57.610Z,86
2022-12-11T04:53:57.621Z,86.1
2022-12-11T04:56:57.624Z,86.2
2022-12-11T04:59:57.629Z,86.3
2022-12-11T05:02:57.697Z,86.4
2022-12-11T05:05:57.644Z,86.4
2022-12-11T05:08:57.637Z,86.4
2022-12-11T05:11:57.644Z,86.4
2022-12-11T05:14:57.646Z,86.5
2022-12-11T05:17:57.653Z,86.6
2022-12-11T05:20:57.681Z,86.5
2022-12-11T05:23:57.655Z,86.5
2022-12-11T05:26:57.667Z,86.4
2022-12-11T05:29:59.480Z,86.4
2022-12-11T05:32:57.680Z,86.4
2022-12-11T05:35:57.668Z,86.4
2022-12-11T05:38:57.699Z,86.3
2022-12-11T05:41:57.683Z,86.3
2022-12-11T05:44:57.699Z,86.5
2022-12-11T05:47:57.695Z,86.6
2022-12-11T05:50:57.699Z,86.7
2022-12-11T05:53:57.730Z,86.8
2022-12-11T05:56:57.742Z,86.7
2022-12-11T05:59:57.734Z,86.5
2022-12-11T06:02:57.890Z,86.6
2022-12-11T06:05:57.774Z,87.1
2022-12-11T06:08:57.779Z,87.8
2022-12-11T06:11:57.776Z,88.2
2022-12-11T06:14:57.804Z,88.7
2022-12-11T06:17:57.779Z,89
2022-12-11T06:20:57.786Z,89.1
2022-12-11T06:23:57.792Z,89.6
2022-12-11T06:26:57.786Z,89.9
2022-12-11T06:29:57.796Z,90.2
2022-12-11T06:32:57.810Z,90.3
2022-12-11T06:35:57.793Z,90.6
2022-12-11T06:38:57.810Z,90.8
2022-12-11T06:41:57.790Z,91.3
2022-12-11T06:44:57.792Z,91.7
2022-12-11T06:47:57.789Z,92.3
2022-12-11T06:50:57.876Z,92.7
2022-12-11T06:53:57.794Z,92.9
2022-12-11T06:56:57.799Z,93
2022-12-11T06:59:57.800Z,92.9
2022-12-11T07:02:57.810Z,92.6
2022-12-11T07:05:57.800Z,92.3
2022-12-11T07:08:57.825Z,92
2022-12-11T07:11:57.804Z,91.7
2022-12-11T07:14:57.802Z,91.5
2022-12-11T07:17:57.805Z,91.5
2022-12-11T07:20:57.803Z,91.6
2022-12-11T07:23:57.813Z,91.7
2022-12-11T07:26:57.837Z,91.7
2022-12-11T07:29:57.816Z,91.8
2022-12-11T07:32:57.869Z,91.9
2022-12-11T07:35:57.815Z,91.9
2022-12-11T07:38:57.815Z,91.8
2022-12-11T07:41:57.821Z,91.6
2022-12-11T07:44:57.836Z,91.2
2022-12-11T07:47:57.825Z,91.2
2022-12-11T07:50:57.819Z,91.5
2022-12-11T07:53:57.827Z,91.8
2022-12-11T07:56:57.833Z,91.6
2022-12-11T07:59:57.831Z,91.6
2022-12-11T08:02:57.855Z,91.9
2022-12-11T08:05:57.842Z,92.5
2022-12-11T08:08:57.842Z,92.9
2022-12-11T08:11:57.850Z,93.2
2022-12-11T08:14:57.852Z,93.3
2022-12-11T08:17:57.852Z,93.3
2022-12-11T08:20:57.878Z,93
2022-12-11T08:23:57.859Z,92.5
2022-12-11T08:26:57.863Z,91.9
2022-12-11T08:29:57.861Z,91.2
2022-12-11T08:32:57.868Z,91.1
2022-12-11T08:35:57.874Z,91
2022-12-11T08:38:57.906Z,90.3
2022-12-11T08:41:57.879Z,89.7
2022-12-11T08:44:57.882Z,88.6
2022-12-11T08:47:57.891Z,87.1
2022-12-11T08:50:57.887Z,86.1
2022-12-11T08:53:57.892Z,85.2
2022-12-11T08:56:58.414Z,83.6
2022-12-11T08:59:57.902Z,82.3
2022-12-11T09:02:57.971Z,81.8
2022-12-11T09:05:57.912Z,80.5
2022-12-11T09:08:57.915Z,79.9
2022-12-11T09:11:57.914Z,79.3
2022-12-11T09:14:57.950Z,78.8
2022-12-11T09:17:57.930Z,78
2022-12-11T09:20:57.942Z,77
2022-12-11T09:23:57.936Z,77.1
2022-12-11T09:26:57.946Z,76.7
2022-12-11T09:29:57.956Z,76.8
2022-12-11T09:32:57.979Z,76.3
2022-12-11T09:35:58.018Z,75.7
2022-12-11T09:38:57.970Z,75.4
2022-12-11T09:41:57.979Z,75.4
2022-12-11T09:44:57.986Z,75
2022-12-11T09:47:57.991Z,73.8
2022-12-11T09:50:58.026Z,72.3
2022-12-11T09:53:58.009Z,71.4
2022-12-11T09:56:58.019Z,71.3
2022-12-11T10:00:02.843Z,71
2022-12-11T10:02:58.058Z,70.3
2022-12-11T10:06:02.746Z,69.9
2022-12-11T10:08:58.065Z,70.4
2022-12-11T10:11:58.049Z,70.1
2022-12-11T10:14:58.087Z,70.3
2022-12-11T10:18:03.069Z,69.9
2022-12-11T10:20:58.075Z,68.9
2022-12-11T10:23:58.079Z,69.3
2022-12-11T10:26:58.107Z,67.7
2022-12-11T10:29:58.095Z,67.6
2022-12-11T10:32:58.101Z,67.8
2022-12-11T10:35:58.112Z,68.3
2022-12-11T10:38:58.117Z,68.6
2022-12-11T10:41:58.116Z,69.7
2022-12-11T10:44:58.146Z,69.9
2022-12-11T10:47:58.132Z,70.1
2022-12-11T10:50:58.142Z,70.2
2022-12-11T10:54:00.365Z,70.5
2022-12-11T10:56:58.144Z,70.4
2022-12-11T10:59:58.146Z,70.1
2022-12-11T11:02:58.205Z,70.1
2022-12-11T11:05:58.273Z,69.8
2022-12-11T11:08:58.165Z,69.7
2022-12-11T11:12:00.006Z,70.3
2022-12-11T11:14:58.270Z,70.8
2022-12-11T11:17:58.175Z,71.1
2022-12-11T11:20:58.202Z,71.3
2022-12-11T11:23:58.190Z,71.6
2022-12-11T11:27:13.000Z,71.6
2022-12-11T11:29:58.196Z,71.1
2022-12-11T11:32:58.199Z,70.9
2022-12-11T11:35:58.209Z,71.1
2022-12-11T11:38:58.365Z,72
2022-12-11T11:41:58.217Z,72.3
2022-12-11T11:44:58.223Z,72.3
2022-12-11T11:47:58.231Z,72.9
2022-12-11T11:50:58.240Z,73.7
2022-12-11T11:53:58.237Z,73.9
2022-12-11T11:56:58.261Z,74
2022-12-11T11:59:58.241Z,74.3
2022-12-11T12:02:58.290Z,74.4
2022-12-11T12:05:58.249Z,74.4
2022-12-11T12:08:58.250Z,74.1
2022-12-11T12:11:58.250Z,73.9
2022-12-11T12:14:58.283Z,74.5
2022-12-11T12:17:58.260Z,75.1
2022-12-11T12:20:58.271Z,75.3
2022-12-11T12:23:58.275Z,75.7
2022-12-11T12:26:58.277Z,76.3
2022-12-11T12:29:58.278Z,76.5
2022-12-11T12:32:58.301Z,76.6
2022-12-11T12:36:02.121Z,76.9
2022-12-11T12:38:58.287Z,77.1
2022-12-11T12:42:01.324Z,76.9
2022-12-11T12:44:58.295Z,77.1
2022-12-11T12:47:58.300Z,77.2
2022-12-11T12:50:58.331Z,77.3
2022-12-11T12:53:58.304Z,77.6
2022-12-11T12:56:58.305Z,77.5
2022-12-11T12:59:58.307Z,77.3
2022-12-11T13:02:58.306Z,77.2
2022-12-11T13:05:58.318Z,77.2
2022-12-11T13:08:58.355Z,77.2
2022-12-11T13:11:58.325Z,77.6
2022-12-11T13:14:58.333Z,77.7
2022-12-11T13:17:58.334Z,77.8
2022-12-11T13:20:58.342Z,77.6
2022-12-11T13:23:58.351Z,76.6
2022-12-11T13:26:58.375Z,75.5
2022-12-11T13:29:58.361Z,74.2
2022-12-11T13:32:58.362Z,74.2
2022-12-11T13:35:58.370Z,73.3
2022-12-11T13:38:58.375Z,74
2022-12-11T13:41:58.388Z,74.6
2022-12-11T13:44:58.414Z,74.7
2022-12-11T13:47:58.393Z,75.2
2022-12-11T13:50:58.396Z,74.9
2022-12-11T13:53:58.404Z,74.8
2022-12-11T13:56:58.420Z,74.5
2022-12-11T13:59:58.419Z,75.1
2022-12-11T14:02:58.445Z,75.4
2022-12-11T14:05:58.434Z,75.3
2022-12-11T14:08:58.445Z,75.3
2022-12-11T14:11:58.450Z,75.5
2022-12-11T14:14:58.458Z,76
2022-12-11T14:17:58.469Z,76.2
2022-12-11T14:20:58.498Z,76.6
2022-12-11T14:23:58.471Z,76.5
2022-12-11T14:26:58.497Z,76.4
2022-12-11T14:29:58.489Z,76.7
2022-12-11T14:32:58.499Z,76.8
2022-12-11T14:35:58.511Z,77.2
2022-12-11T14:38:58.536Z,76.8
2022-12-11T14:41:58.510Z,77
2022-12-11T14:44:58.520Z,77.1
2022-12-11T14:47:58.530Z,77.3
2022-12-11T14:50:58.530Z,77.5
2022-12-11T14:53:58.542Z,77.6
2022-12-11T14:56:58.561Z,77.8
2022-12-11T14:59:58.545Z,78.1
2022-12-11T15:02:58.582Z,78.1
2022-12-11T15:05:58.554Z,78.1
2022-12-11T15:08:58.554Z,78.5
2022-12-11T15:11:58.559Z,78.7
2022-12-11T15:14:58.582Z,78.9
2022-12-11T15:17:58.564Z,78.9
2022-12-11T15:20:58.566Z,79
2022-12-11T15:23:58.576Z,79.4
2022-12-11T15:26:58.581Z,79.7
2022-12-11T15:29:58.587Z,83.1
2022-12-11T15:32:58.610Z,83.6
2022-12-11T15:35:58.590Z,83.9
2022-12-11T15:38:58.594Z,84.6
2022-12-11T15:41:58.603Z,84.9
2022-12-11T15:44:58.608Z,85.3
2022-12-11T15:47:58.615Z,85.6
2022-12-11T15:50:58.640Z,85.9
2022-12-11T15:53:58.627Z,86.3
2022-12-11T15:56:58.626Z,86.7
2022-12-11T15:59:58.633Z,86.9
2022-12-11T16:02:58.688Z,87.1
2022-12-11T16:05:58.641Z,87.3
2022-12-11T16:08:58.665Z,87.5
2022-12-11T16:11:58.647Z,87.6
2022-12-11T16:14:58.648Z,87.8
2022-12-11T16:17:58.652Z,87.9
2022-12-11T16:20:58.657Z,88
2022-12-11T16:23:58.668Z,88.1
2022-12-11T16:26:58.670Z,88.2
2022-12-11T16:30:04.319Z,88.3
2022-12-11T16:32:58.701Z,88.4
2022-12-11T16:35:58.676Z,88.5
2022-12-11T16:38:58.680Z,88.5
2022-12-11T16:41:58.684Z,88.5
2022-12-11T16:44:58.691Z,88.5
2022-12-11T16:47:58.697Z,88.5
2022-12-11T16:50:58.728Z,88.6
2022-12-11T16:53:58.715Z,88.7
2022-12-11T16:56:58.710Z,88.8
2022-12-11T16:59:58.743Z,88.8
2022-12-11T17:02:58.780Z,88.9
2022-12-11T17:05:58.724Z,88.9
2022-12-11T17:08:58.750Z,88.8
2022-12-11T17:11:58.728Z,88.8
2022-12-11T17:14:58.733Z,88.8
2022-12-11T17:17:58.743Z,88.9
2022-12-11T17:20:58.760Z,88.9
2022-12-11T17:23:58.761Z,88.9
2022-12-11T17:26:58.797Z,88.9
2022-12-11T17:29:58.762Z,88.8
2022-12-11T17:32:58.774Z,88.8
2022-12-11T17:35:58.775Z,88.7
2022-12-11T17:38:58.777Z,88.7
2022-12-11T17:41:58.783Z,89
2022-12-11T17:44:58.793Z,89.2
2022-12-11T17:47:58.814Z,89.3
2022-12-11T17:50:58.791Z,89.4
2022-12-11T17:53:58.795Z,89.6
2022-12-11T17:56:58.801Z,89.8
2022-12-11T17:59:58.808Z,89.8
2022-12-11T18:02:58.814Z,89.7
2022-12-11T18:05:58.843Z,89.6
2022-12-11T18:08:58.829Z,89.6
2022-12-11T18:11:58.834Z,89.7
2022-12-11T18:14:58.830Z,89.8
2022-12-11T18:17:58.843Z,89.9
2022-12-11T18:20:58.844Z,90.1
2022-12-11T18:23:58.879Z,90.1
2022-12-11T18:26:58.855Z,90.2
2022-12-11T18:29:58.861Z,90.5
2022-12-11T18:32:58.877Z,90.6
2022-12-11T18:35:58.887Z,90.8
2022-12-11T18:38:58.909Z,90.8
2022-12-11T18:42:31.000Z,90.8
2022-12-11T18:44:58.887Z,91
2022-12-11T18:47:58.895Z,91.2
2022-12-11T18:50:58.899Z,91.5
2022-12-11T18:53:58.918Z,91.8
2022-12-11T18:56:58.908Z,92
2022-12-11T18:59:58.924Z,92.1
2022-12-11T19:02:58.907Z,92.1
2022-12-11T19:05:58.909Z,92.2
2022-12-11T19:08:58.916Z,92.2
2022-12-11T19:11:58.922Z,92.3
2022-12-11T19:14:58.923Z,92.6
2022-12-11T19:17:58.959Z,92.8
2022-12-11T19:21:06.638Z,92.9
2022-12-11T19:23:58.940Z,93.1
2022-12-11T19:26:58.937Z,93.2
2022-12-11T19:29:58.946Z,93.1
2022-12-11T19:32:58.952Z,93
2022-12-11T19:35:58.979Z,93.1
2022-12-11T19:39:01.712Z,93.2
2022-12-11T19:41:58.968Z,93.3
2022-12-11T19:44:58.973Z,93.4
2022-12-11T19:47:58.974Z,93.4
2022-12-11T19:50:58.978Z,93.4
2022-12-11T19:53:59.009Z,93.4
2022-12-11T19:56:58.985Z,93.5
2022-12-11T19:59:58.995Z,93.7
2022-12-11T20:02:59.016Z,94
2022-12-11T20:05:59.001Z,94.3
2022-12-11T20:08:59.060Z,94.4
2022-12-11T20:11:59.034Z,94.3
2022-12-11T20:14:59.015Z,94.3
2022-12-11T20:17:59.023Z,94.3
2022-12-11T20:20:59.023Z,94.4
2022-12-11T20:23:59.037Z,94.5
2022-12-11T20:26:59.036Z,94.3
2022-12-11T20:29:59.056Z,94.1
2022-12-11T20:32:59.082Z,94.3
2022-12-11T20:35:59.056Z,94.4
2022-12-11T20:38:59.065Z,94.6
2022-12-11T20:41:59.062Z,94.7
2022-12-11T20:44:59.072Z,94.8
2022-12-11T20:47:59.079Z,95
2022-12-11T20:50:59.107Z,95.2
2022-12-11T20:53:59.610Z,95.3
2022-12-11T20:56:59.088Z,95.3
2022-12-11T20:59:59.095Z,95.4
2022-12-11T21:02:59.103Z,95.4
2022-12-11T21:05:59.108Z,95.4
2022-12-11T21:08:59.131Z,95.4
2022-12-11T21:11:59.117Z,95.5
2022-12-11T21:14:59.118Z,95.6
2022-12-11T21:17:59.135Z,95.6
2022-12-11T21:20:59.141Z,95.6
2022-12-11T21:23:59.140Z,95.6
2022-12-11T21:27:04.792Z,95.6
2022-12-11T21:29:59.167Z,95.7
2022-12-11T21:32:59.149Z,95.8
2022-12-11T21:35:59.154Z,95.9
2022-12-11T21:38:59.160Z,95.9
2022-12-11T21:41:59.166Z,95.9
2022-12-11T21:47:59.199Z,95.5
2022-12-11T21:50:59.175Z,95.3
2022-12-11T21:53:59.185Z,95.4
2022-12-11T21:56:59.191Z,95.6
2022-12-11T21:59:59.187Z,95.8
2022-12-11T22:02:59.195Z,95.8
2022-12-11T22:05:59.224Z,96
2022-12-11T22:08:59.201Z,96
2022-12-11T22:11:59.202Z,96
2022-12-11T22:14:59.208Z,96
2022-12-11T22:17:59.211Z,95.9
2022-12-11T22:20:59.213Z,95.9
2022-12-11T22:23:59.247Z,95.7
2022-12-11T22:26:59.223Z,95.5
2022-12-11T22:29:59.232Z,95.6
2022-12-11T22:32:59.237Z,95
2022-12-11T22:35:59.240Z,95.3
2022-12-11T22:38:59.245Z,95.2
2022-12-11T22:41:59.276Z,95.3
2022-12-11T22:44:59.255Z,95.2
2022-12-11T22:47:59.261Z,95.1
2022-12-11T22:50:59.265Z,95.1
2022-12-11T22:53:59.267Z,95.1
2022-12-11T22:56:59.271Z,95.1
2022-12-11T23:00:04.302Z,95.1
2022-12-11T23:02:59.406Z,95.1
2022-12-11T23:06:03.422Z,95.1
2022-12-11T23:08:59.463Z,95.1
2022-12-11T23:11:59.300Z,95
2022-12-11T23:14:59.305Z,95.1
2022-12-11T23:17:59.304Z,94.9
2022-12-11T23:20:59.327Z,95
2022-12-11T23:23:59.320Z,94.9
2022-12-11T23:26:59.322Z,94.9
2022-12-11T23:29:59.325Z,94.8
2022-12-11T23:32:59.324Z,94.8
2022-12-11T23:35:59.330Z,94.8
2022-12-11T23:38:59.338Z,94.7
2022-12-11T23:41:59.489Z,94.7
2022-12-11T23:44:59.345Z,94.6
2022-12-11T23:47:59.346Z,94.5
2022-12-11T23:50:59.352Z,94.4
2022-12-11T23:53:59.360Z,94.3
2022-12-11T23:56:59.360Z,94.2
2022-12-11T23:59:59.395Z,94.1
